sensor_id;sensor_type;location;lat;lon;timestamp;temperature;humidity
44517;DHT22;30223;17.182;-96.766;2023-01-16T00:02:19;23.30;48.90
44517;DHT22;30223;17.182;-96.766;2023-01-16T00:04:46;23.30;49.00
44517;DHT22;30223;17.182;-96.766;2023-01-16T00:07:12;23.30;49.00
44517;DHT22;30223;17.182;-96.766;2023-01-16T00:09:39;23.30;49.00
44517;DHT22;30223;17.182;-96.766;2023-01-16T00:12:06;23.30;49.10
44517;DHT22;30223;17.182;-96.766;2023-01-16T00:14:33;23.30;49.10
44517;DHT22;30223;17.182;-96.766;2023-01-16T00:17:00;23.30;49.10
44517;DHT22;30223;17.182;-96.766;2023-01-16T00:19:26;23.30;49.20
44517;DHT22;30223;17.182;-96.766;2023-01-16T00:21:53;23.20;49.20
44517;DHT22;30223;17.182;-96.766;2023-01-16T00:24:19;23.20;49.20
44517;DHT22;30223;17.182;-96.766;2023-01-16T00:26:49;23.20;49.20
44517;DHT22;30223;17.182;-96.766;2023-01-16T00:29:17;23.20;49.20
44517;DHT22;30223;17.182;-96.766;2023-01-16T00:31:44;23.20;49.60
44517;DHT22;30223;17.182;-96.766;2023-01-16T00:34:10;23.20;49.30
44517;DHT22;30223;17.182;-96.766;2023-01-16T00:36:37;23.20;49.30
44517;DHT22;30223;17.182;-96.766;2023-01-16T00:39:05;23.20;49.30
44517;DHT22;30223;17.182;-96.766;2023-01-16T00:41:32;23.10;49.30
44517;DHT22;30223;17.182;-96.766;2023-01-16T00:43:59;23.20;49.40
44517;DHT22;30223;17.182;-96.766;2023-01-16T00:46:26;23.10;49.30
44517;DHT22;30223;17.182;-96.766;2023-01-16T00:48:56;23.10;49.30
44517;DHT22;30223;17.182;-96.766;2023-01-16T00:51:23;23.10;49.30
44517;DHT22;30223;17.182;-96.766;2023-01-16T00:53:49;23.10;50.00
44517;DHT22;30223;17.182;-96.766;2023-01-16T00:56:16;23.10;49.40
44517;DHT22;30223;17.182;-96.766;2023-01-16T00:58:43;23.10;49.40
44517;DHT22;30223;17.182;-96.766;2023-01-16T01:01:09;23.10;49.40
44517;DHT22;30223;17.182;-96.766;2023-01-16T01:03:36;23.10;49.40
44517;DHT22;30223;17.182;-96.766;2023-01-16T01:06:10;23.00;49.40
44517;DHT22;30223;17.182;-96.766;2023-01-16T01:08:39;23.00;49.50
44517;DHT22;30223;17.182;-96.766;2023-01-16T01:11:08;23.00;49.50
44517;DHT22;30223;17.182;-96.766;2023-01-16T01:13:35;23.00;49.50
44517;DHT22;30223;17.182;-96.766;2023-01-16T01:16:02;23.00;49.50
44517;DHT22;30223;17.182;-96.766;2023-01-16T01:18:29;23.00;49.60
44517;DHT22;30223;17.182;-96.766;2023-01-16T01:20:55;23.00;49.60
44517;DHT22;30223;17.182;-96.766;2023-01-16T01:23:22;23.00;49.60
44517;DHT22;30223;17.182;-96.766;2023-01-16T01:25:49;23.00;49.70
44517;DHT22;30223;17.182;-96.766;2023-01-16T01:28:16;23.00;49.70
44517;DHT22;30223;17.182;-96.766;2023-01-16T01:30:42;23.00;49.70
44517;DHT22;30223;17.182;-96.766;2023-01-16T01:33:09;22.90;49.70
44517;DHT22;30223;17.182;-96.766;2023-01-16T01:35:36;22.90;49.70
44517;DHT22;30223;17.182;-96.766;2023-01-16T01:38:04;22.90;49.70
44517;DHT22;30223;17.182;-96.766;2023-01-16T01:40:32;22.90;49.70
44517;DHT22;30223;17.182;-96.766;2023-01-16T01:42:58;22.90;49.70
44517;DHT22;30223;17.182;-96.766;2023-01-16T01:45:28;22.90;49.70
44517;DHT22;30223;17.182;-96.766;2023-01-16T01:50:47;22.90;49.70
44517;DHT22;30223;17.182;-96.766;2023-01-16T01:55:48;22.80;49.70
44517;DHT22;30223;17.182;-96.766;2023-01-16T01:58:18;22.90;49.70
44517;DHT22;30223;17.182;-96.766;2023-01-16T02:00:50;22.90;49.70
44517;DHT22;30223;17.182;-96.766;2023-01-16T02:03:56;22.90;49.70
44517;DHT22;30223;17.182;-96.766;2023-01-16T02:06:25;22.80;49.70
44517;DHT22;30223;17.182;-96.766;2023-01-16T02:08:57;22.80;49.70
44517;DHT22;30223;17.182;-96.766;2023-01-16T02:11:38;22.80;49.70
44517;DHT22;30223;17.182;-96.766;2023-01-16T02:14:09;22.80;49.70
44517;DHT22;30223;17.182;-96.766;2023-01-16T02:16:37;22.70;49.70
44517;DHT22;30223;17.182;-96.766;2023-01-16T02:31:54;22.70;49.80
44517;DHT22;30223;17.182;-96.766;2023-01-16T02:48:49;22.60;50.00
44517;DHT22;30223;17.182;-96.766;2023-01-16T02:51:32;22.60;50.10
44517;DHT22;30223;17.182;-96.766;2023-01-16T02:54:05;22.50;50.00
44517;DHT22;30223;17.182;-96.766;2023-01-16T02:56:43;22.50;50.00
44517;DHT22;30223;17.182;-96.766;2023-01-16T02:59:13;22.50;50.10
44517;DHT22;30223;17.182;-96.766;2023-01-16T03:01:40;22.50;50.10
44517;DHT22;30223;17.182;-96.766;2023-01-16T03:17:45;22.60;54.20
44517;DHT22;30223;17.182;-96.766;2023-01-16T03:20:27;22.60;54.60
44517;DHT22;30223;17.182;-96.766;2023-01-16T03:25:51;22.60;55.30
44517;DHT22;30223;17.182;-96.766;2023-01-16T03:31:33;22.50;55.30
44517;DHT22;30223;17.182;-96.766;2023-01-16T03:34:25;22.50;56.20
44517;DHT22;30223;17.182;-96.766;2023-01-16T03:37:22;22.50;56.00
44517;DHT22;30223;17.182;-96.766;2023-01-16T03:40:02;22.50;55.90
44517;DHT22;30223;17.182;-96.766;2023-01-16T03:43:22;22.50;55.70
44517;DHT22;30223;17.182;-96.766;2023-01-16T03:45:52;22.50;55.60
44517;DHT22;30223;17.182;-96.766;2023-01-16T03:51:24;22.40;55.00
44517;DHT22;30223;17.182;-96.766;2023-01-16T03:59:38;22.30;54.40
44517;DHT22;30223;17.182;-96.766;2023-01-16T04:07:20;22.30;54.20
44517;DHT22;30223;17.182;-96.766;2023-01-16T04:10:15;22.30;54.10
44517;DHT22;30223;17.182;-96.766;2023-01-16T04:13:34;22.30;54.10
44517;DHT22;30223;17.182;-96.766;2023-01-16T04:16:01;22.20;54.00
44517;DHT22;30223;17.182;-96.766;2023-01-16T04:18:32;22.20;54.50
44517;DHT22;30223;17.182;-96.766;2023-01-16T04:20:59;22.20;53.90
44517;DHT22;30223;17.182;-96.766;2023-01-16T04:23:27;22.20;53.90
44517;DHT22;30223;17.182;-96.766;2023-01-16T04:25:53;22.20;53.90
44517;DHT22;30223;17.182;-96.766;2023-01-16T04:28:20;22.20;53.80
44517;DHT22;30223;17.182;-96.766;2023-01-16T04:30:46;22.20;53.90
44517;DHT22;30223;17.182;-96.766;2023-01-16T04:33:13;22.10;53.70
44517;DHT22;30223;17.182;-96.766;2023-01-16T04:35:41;22.10;53.70
44517;DHT22;30223;17.182;-96.766;2023-01-16T04:38:08;22.10;53.80
44517;DHT22;30223;17.182;-96.766;2023-01-16T04:40:34;22.10;53.80
44517;DHT22;30223;17.182;-96.766;2023-01-16T04:43:01;22.10;53.70
44517;DHT22;30223;17.182;-96.766;2023-01-16T04:45:28;22.10;54.20
44517;DHT22;30223;17.182;-96.766;2023-01-16T04:47:54;22.10;57.50
44517;DHT22;30223;17.182;-96.766;2023-01-16T04:50:21;22.10;57.80
44517;DHT22;30223;17.182;-96.766;2023-01-16T04:52:48;22.10;58.00
44517;DHT22;30223;17.182;-96.766;2023-01-16T04:55:18;22.10;58.00
44517;DHT22;30223;17.182;-96.766;2023-01-16T04:57:46;22.10;58.10
44517;DHT22;30223;17.182;-96.766;2023-01-16T05:00:13;22.10;58.00
44517;DHT22;30223;17.182;-96.766;2023-01-16T05:02:41;22.10;57.90
44517;DHT22;30223;17.182;-96.766;2023-01-16T05:05:07;22.00;57.80
44517;DHT22;30223;17.182;-96.766;2023-01-16T05:07:34;22.10;57.50
44517;DHT22;30223;17.182;-96.766;2023-01-16T05:10:01;22.00;57.20
44517;DHT22;30223;17.182;-96.766;2023-01-16T05:12:27;22.00;56.90
44517;DHT22;30223;17.182;-96.766;2023-01-16T05:14:54;22.00;56.80
44517;DHT22;30223;17.182;-96.766;2023-01-16T05:17:21;22.00;56.50
44517;DHT22;30223;17.182;-96.766;2023-01-16T05:19:51;21.90;56.30
44517;DHT22;30223;17.182;-96.766;2023-01-16T05:22:18;21.90;56.10
44517;DHT22;30223;17.182;-96.766;2023-01-16T05:24:44;21.90;55.90
44517;DHT22;30223;17.182;-96.766;2023-01-16T05:27:11;21.90;55.80
44517;DHT22;30223;17.182;-96.766;2023-01-16T05:29:38;21.90;55.60
44517;DHT22;30223;17.182;-96.766;2023-01-16T05:32:04;21.80;55.40
44517;DHT22;30223;17.182;-96.766;2023-01-16T05:34:31;21.80;55.30
44517;DHT22;30223;17.182;-96.766;2023-01-16T05:36:58;21.80;55.20
44517;DHT22;30223;17.182;-96.766;2023-01-16T05:39:24;21.80;55.00
44517;DHT22;30223;17.182;-96.766;2023-01-16T05:41:51;21.70;54.90
44517;DHT22;30223;17.182;-96.766;2023-01-16T05:44:18;21.80;54.80
44517;DHT22;30223;17.182;-96.766;2023-01-16T05:46:45;21.70;54.70
44517;DHT22;30223;17.182;-96.766;2023-01-16T05:49:12;21.70;54.70
44517;DHT22;30223;17.182;-96.766;2023-01-16T05:51:38;21.70;54.60
44517;DHT22;30223;17.182;-96.766;2023-01-16T05:54:05;21.60;54.50
44517;DHT22;30223;17.182;-96.766;2023-01-16T05:56:31;21.60;54.40
44517;DHT22;30223;17.182;-96.766;2023-01-16T05:58:58;21.60;54.40
44517;DHT22;30223;17.182;-96.766;2023-01-16T06:01:25;21.60;54.30
44517;DHT22;30223;17.182;-96.766;2023-01-16T06:03:51;21.60;54.30
44517;DHT22;30223;17.182;-96.766;2023-01-16T06:06:18;21.60;54.20
44517;DHT22;30223;17.182;-96.766;2023-01-16T06:08:46;21.60;54.10
44517;DHT22;30223;17.182;-96.766;2023-01-16T06:11:13;21.50;54.10
44517;DHT22;30223;17.182;-96.766;2023-01-16T06:13:39;21.50;54.00
44517;DHT22;30223;17.182;-96.766;2023-01-16T06:16:06;21.50;53.90
44517;DHT22;30223;17.182;-96.766;2023-01-16T06:18:33;21.50;53.90
44517;DHT22;30223;17.182;-96.766;2023-01-16T06:21:00;21.50;53.90
44517;DHT22;30223;17.182;-96.766;2023-01-16T06:23:26;21.50;53.90
44517;DHT22;30223;17.182;-96.766;2023-01-16T06:25:53;21.40;53.80
44517;DHT22;30223;17.182;-96.766;2023-01-16T06:28:19;21.40;53.80
44517;DHT22;30223;17.182;-96.766;2023-01-16T06:30:51;21.40;53.80
44517;DHT22;30223;17.182;-96.766;2023-01-16T06:33:18;21.40;53.80
44517;DHT22;30223;17.182;-96.766;2023-01-16T06:35:45;21.40;53.70
44517;DHT22;30223;17.182;-96.766;2023-01-16T06:38:11;21.40;53.70
44517;DHT22;30223;17.182;-96.766;2023-01-16T06:40:38;21.40;53.60
44517;DHT22;30223;17.182;-96.766;2023-01-16T06:43:05;21.30;53.60
44517;DHT22;30223;17.182;-96.766;2023-01-16T06:45:31;21.30;53.50
44517;DHT22;30223;17.182;-96.766;2023-01-16T06:47:58;21.30;53.50
44517;DHT22;30223;17.182;-96.766;2023-01-16T06:50:25;21.30;53.50
44517;DHT22;30223;17.182;-96.766;2023-01-16T06:52:51;21.30;53.50
44517;DHT22;30223;17.182;-96.766;2023-01-16T06:55:18;21.30;53.50
44517;DHT22;30223;17.182;-96.766;2023-01-16T06:57:45;21.30;53.40
44517;DHT22;30223;17.182;-96.766;2023-01-16T07:00:13;21.30;53.40
44517;DHT22;30223;17.182;-96.766;2023-01-16T07:02:40;21.20;53.40
44517;DHT22;30223;17.182;-96.766;2023-01-16T07:05:08;21.20;53.40
44517;DHT22;30223;17.182;-96.766;2023-01-16T07:07:36;21.20;53.30
44517;DHT22;30223;17.182;-96.766;2023-01-16T07:10:03;21.20;53.30
44517;DHT22;30223;17.182;-96.766;2023-01-16T07:12:30;21.20;53.30
44517;DHT22;30223;17.182;-96.766;2023-01-16T07:14:56;21.20;53.30
44517;DHT22;30223;17.182;-96.766;2023-01-16T07:17:41;21.20;53.30
44517;DHT22;30223;17.182;-96.766;2023-01-16T07:20:26;21.10;53.20
44517;DHT22;30223;17.182;-96.766;2023-01-16T07:23:24;21.10;53.20
44517;DHT22;30223;17.182;-96.766;2023-01-16T07:25:53;21.10;53.20
44517;DHT22;30223;17.182;-96.766;2023-01-16T07:28:20;21.10;53.20
44517;DHT22;30223;17.182;-96.766;2023-01-16T07:30:48;21.10;53.20
44517;DHT22;30223;17.182;-96.766;2023-01-16T07:33:15;21.10;53.20
44517;DHT22;30223;17.182;-96.766;2023-01-16T07:35:42;21.10;53.20
44517;DHT22;30223;17.182;-96.766;2023-01-16T07:38:09;21.00;53.20
44517;DHT22;30223;17.182;-96.766;2023-01-16T07:40:36;21.00;53.10
44517;DHT22;30223;17.182;-96.766;2023-01-16T07:43:03;21.00;53.10
44517;DHT22;30223;17.182;-96.766;2023-01-16T07:45:29;21.00;53.10
44517;DHT22;30223;17.182;-96.766;2023-01-16T07:47:57;21.00;53.10
44517;DHT22;30223;17.182;-96.766;2023-01-16T07:50:23;21.00;53.10
44517;DHT22;30223;17.182;-96.766;2023-01-16T07:52:50;21.00;53.10
44517;DHT22;30223;17.182;-96.766;2023-01-16T07:55:17;21.00;53.10
44517;DHT22;30223;17.182;-96.766;2023-01-16T07:57:43;21.00;53.10
44517;DHT22;30223;17.182;-96.766;2023-01-16T08:00:12;20.90;52.90
44517;DHT22;30223;17.182;-96.766;2023-01-16T08:02:39;20.90;53.00
44517;DHT22;30223;17.182;-96.766;2023-01-16T08:05:07;20.90;52.90
44517;DHT22;30223;17.182;-96.766;2023-01-16T08:07:33;20.90;52.90
44517;DHT22;30223;17.182;-96.766;2023-01-16T08:10:00;20.90;53.00
44517;DHT22;30223;17.182;-96.766;2023-01-16T08:12:26;20.90;52.90
44517;DHT22;30223;17.182;-96.766;2023-01-16T08:14:53;20.90;53.00
44517;DHT22;30223;17.182;-96.766;2023-01-16T08:17:20;20.80;52.90
44517;DHT22;30223;17.182;-96.766;2023-01-16T08:19:46;20.80;52.90
44517;DHT22;30223;17.182;-96.766;2023-01-16T08:22:13;20.80;53.50
44517;DHT22;30223;17.182;-96.766;2023-01-16T08:24:40;20.80;52.90
44517;DHT22;30223;17.182;-96.766;2023-01-16T08:27:06;20.80;52.90
44517;DHT22;30223;17.182;-96.766;2023-01-16T08:29:33;20.80;52.90
44517;DHT22;30223;17.182;-96.766;2023-01-16T08:32:00;20.80;52.90
44517;DHT22;30223;17.182;-96.766;2023-01-16T08:34:26;20.80;52.90
44517;DHT22;30223;17.182;-96.766;2023-01-16T08:36:53;20.70;52.90
44517;DHT22;30223;17.182;-96.766;2023-01-16T08:39:19;20.70;52.90
44517;DHT22;30223;17.182;-96.766;2023-01-16T08:41:46;20.70;52.90
44517;DHT22;30223;17.182;-96.766;2023-01-16T08:44:31;20.70;52.90
44517;DHT22;30223;17.182;-96.766;2023-01-16T08:47:21;20.70;53.40
44517;DHT22;30223;17.182;-96.766;2023-01-16T08:50:11;20.70;53.10
44517;DHT22;30223;17.182;-96.766;2023-01-16T08:52:57;20.70;53.00
44517;DHT22;30223;17.182;-96.766;2023-01-16T08:55:24;20.60;53.00
44517;DHT22;30223;17.182;-96.766;2023-01-16T08:57:51;20.60;52.90
44517;DHT22;30223;17.182;-96.766;2023-01-16T09:00:18;20.60;52.90
44517;DHT22;30223;17.182;-96.766;2023-01-16T09:02:46;20.60;52.90
44517;DHT22;30223;17.182;-96.766;2023-01-16T09:05:13;20.60;52.90
44517;DHT22;30223;17.182;-96.766;2023-01-16T09:07:40;20.50;52.90
44517;DHT22;30223;17.182;-96.766;2023-01-16T09:10:07;20.50;52.90
44517;DHT22;30223;17.182;-96.766;2023-01-16T09:12:34;20.50;52.90
44517;DHT22;30223;17.182;-96.766;2023-01-16T09:15:19;20.50;52.90
44517;DHT22;30223;17.182;-96.766;2023-01-16T09:17:45;20.50;52.90
44517;DHT22;30223;17.182;-96.766;2023-01-16T09:20:14;20.50;52.90
44517;DHT22;30223;17.182;-96.766;2023-01-16T09:22:41;20.50;52.90
44517;DHT22;30223;17.182;-96.766;2023-01-16T09:25:08;20.40;52.90
44517;DHT22;30223;17.182;-96.766;2023-01-16T09:27:35;20.40;52.90
44517;DHT22;30223;17.182;-96.766;2023-01-16T09:30:01;20.40;52.80
44517;DHT22;30223;17.182;-96.766;2023-01-16T09:32:28;20.40;52.90
44517;DHT22;30223;17.182;-96.766;2023-01-16T09:34:55;20.40;52.90
44517;DHT22;30223;17.182;-96.766;2023-01-16T09:37:21;20.40;52.90
44517;DHT22;30223;17.182;-96.766;2023-01-16T09:39:48;20.30;52.90
44517;DHT22;30223;17.182;-96.766;2023-01-16T09:42:39;20.30;52.90
44517;DHT22;30223;17.182;-96.766;2023-01-16T09:45:30;20.30;52.90
44517;DHT22;30223;17.182;-96.766;2023-01-16T09:48:04;20.30;52.90
44517;DHT22;30223;17.182;-96.766;2023-01-16T09:50:44;20.30;53.00
44517;DHT22;30223;17.182;-96.766;2023-01-16T09:53:40;20.20;52.90
44517;DHT22;30223;17.182;-96.766;2023-01-16T09:56:30;20.20;52.90
44517;DHT22;30223;17.182;-96.766;2023-01-16T10:01:56;20.20;53.00
44517;DHT22;30223;17.182;-96.766;2023-01-16T10:04:27;20.20;53.00
44517;DHT22;30223;17.182;-96.766;2023-01-16T10:07:05;20.10;53.00
44517;DHT22;30223;17.182;-96.766;2023-01-16T10:12:11;20.10;53.00
44517;DHT22;30223;17.182;-96.766;2023-01-16T10:26:23;20.00;53.10
44517;DHT22;30223;17.182;-96.766;2023-01-16T10:31:48;20.00;53.10
44517;DHT22;30223;17.182;-96.766;2023-01-16T10:34:22;19.90;53.00
44517;DHT22;30223;17.182;-96.766;2023-01-16T10:36:54;19.90;53.00
44517;DHT22;30223;17.182;-96.766;2023-01-16T10:39:32;19.90;53.00
44517;DHT22;30223;17.182;-96.766;2023-01-16T10:42:24;19.90;53.00
44517;DHT22;30223;17.182;-96.766;2023-01-16T10:45:23;19.90;53.00
44517;DHT22;30223;17.182;-96.766;2023-01-16T10:48:12;19.90;53.10
44517;DHT22;30223;17.182;-96.766;2023-01-16T10:50:59;19.80;53.00
44517;DHT22;30223;17.182;-96.766;2023-01-16T10:53:27;19.80;53.00
44517;DHT22;30223;17.182;-96.766;2023-01-16T10:55:55;19.80;53.10
44517;DHT22;30223;17.182;-96.766;2023-01-16T10:58:37;19.80;53.10
44517;DHT22;30223;17.182;-96.766;2023-01-16T11:01:21;19.80;53.10
44517;DHT22;30223;17.182;-96.766;2023-01-16T11:03:53;19.70;53.00
44517;DHT22;30223;17.182;-96.766;2023-01-16T11:06:25;19.70;53.10
44517;DHT22;30223;17.182;-96.766;2023-01-16T11:09:04;19.80;53.20
44517;DHT22;30223;17.182;-96.766;2023-01-16T11:11:35;19.70;53.10
44517;DHT22;30223;17.182;-96.766;2023-01-16T11:14:28;19.70;53.10
44517;DHT22;30223;17.182;-96.766;2023-01-16T11:20:31;19.60;53.10
44517;DHT22;30223;17.182;-96.766;2023-01-16T11:23:00;19.60;53.10
44517;DHT22;30223;17.182;-96.766;2023-01-16T11:25:31;19.60;53.10
44517;DHT22;30223;17.182;-96.766;2023-01-16T11:28:02;19.60;53.10
44517;DHT22;30223;17.182;-96.766;2023-01-16T11:30:36;19.60;53.10
44517;DHT22;30223;17.182;-96.766;2023-01-16T11:33:05;19.60;53.10
44517;DHT22;30223;17.182;-96.766;2023-01-16T11:35:37;19.60;53.10
44517;DHT22;30223;17.182;-96.766;2023-01-16T11:38:05;19.50;53.10
44517;DHT22;30223;17.182;-96.766;2023-01-16T11:40:36;19.50;53.10
44517;DHT22;30223;17.182;-96.766;2023-01-16T11:43:12;19.50;53.00
44517;DHT22;30223;17.182;-96.766;2023-01-16T11:45:57;19.50;53.00
44517;DHT22;30223;17.182;-96.766;2023-01-16T11:48:38;19.40;52.90
44517;DHT22;30223;17.182;-96.766;2023-01-16T11:51:09;19.40;53.00
44517;DHT22;30223;17.182;-96.766;2023-01-16T11:53:36;19.40;53.00
44517;DHT22;30223;17.182;-96.766;2023-01-16T12:01:44;19.40;53.00
44517;DHT22;30223;17.182;-96.766;2023-01-16T12:04:31;19.30;53.00
44517;DHT22;30223;17.182;-96.766;2023-01-16T12:07:19;19.30;53.00
44517;DHT22;30223;17.182;-96.766;2023-01-16T12:12:35;19.30;53.00
44517;DHT22;30223;17.182;-96.766;2023-01-16T12:15:33;19.30;53.00
44517;DHT22;30223;17.182;-96.766;2023-01-16T12:21:13;19.20;52.90
44517;DHT22;30223;17.182;-96.766;2023-01-16T12:23:57;19.20;53.00
44517;DHT22;30223;17.182;-96.766;2023-01-16T12:26:40;19.20;53.00
44517;DHT22;30223;17.182;-96.766;2023-01-16T12:29:24;19.20;52.90
44517;DHT22;30223;17.182;-96.766;2023-01-16T12:32:15;19.20;52.90
44517;DHT22;30223;17.182;-96.766;2023-01-16T12:35:00;19.10;52.80
44517;DHT22;30223;17.182;-96.766;2023-01-16T12:59:49;19.00;53.60
44517;DHT22;30223;17.182;-96.766;2023-01-16T13:05:17;19.00;53.60
44517;DHT22;30223;17.182;-96.766;2023-01-16T13:07:59;18.90;53.00
44517;DHT22;30223;17.182;-96.766;2023-01-16T13:10:33;18.90;53.00
44517;DHT22;30223;17.182;-96.766;2023-01-16T13:13:26;18.90;53.00
44517;DHT22;30223;17.182;-96.766;2023-01-16T13:18:52;18.90;53.10
44517;DHT22;30223;17.182;-96.766;2023-01-16T13:21:27;18.80;53.10
44517;DHT22;30223;17.182;-96.766;2023-01-16T13:23:54;18.80;53.10
44517;DHT22;30223;17.182;-96.766;2023-01-16T13:26:26;18.80;53.10
44517;DHT22;30223;17.182;-96.766;2023-01-16T13:29:05;18.80;53.10
44517;DHT22;30223;17.182;-96.766;2023-01-16T13:31:45;18.80;53.20
44517;DHT22;30223;17.182;-96.766;2023-01-16T13:34:52;18.80;53.20
44517;DHT22;30223;17.182;-96.766;2023-01-16T13:40:08;18.70;53.10
44517;DHT22;30223;17.182;-96.766;2023-01-16T13:42:48;18.70;53.20
44517;DHT22;30223;17.182;-96.766;2023-01-16T13:45:27;18.70;53.10
44517;DHT22;30223;17.182;-96.766;2023-01-16T13:48:13;18.70;53.20
44517;DHT22;30223;17.182;-96.766;2023-01-16T13:50:52;18.70;53.20
44517;DHT22;30223;17.182;-96.766;2023-01-16T13:53:24;18.60;53.30
44517;DHT22;30223;17.182;-96.766;2023-01-16T13:56:24;18.60;53.40
44517;DHT22;30223;17.182;-96.766;2023-01-16T13:59:06;18.60;53.50
44517;DHT22;30223;17.182;-96.766;2023-01-16T14:04:31;18.60;53.60
44517;DHT22;30223;17.182;-96.766;2023-01-16T14:07:02;18.60;55.20
44517;DHT22;30223;17.182;-96.766;2023-01-16T14:10:07;18.60;54.90
44517;DHT22;30223;17.182;-96.766;2023-01-16T14:13:01;18.60;54.80
44517;DHT22;30223;17.182;-96.766;2023-01-16T14:15:50;18.60;54.80
44517;DHT22;30223;17.182;-96.766;2023-01-16T14:24:12;18.60;55.00
44517;DHT22;30223;17.182;-96.766;2023-01-16T14:34:28;18.60;55.00
44517;DHT22;30223;17.182;-96.766;2023-01-16T14:37:15;18.60;55.00
44517;DHT22;30223;17.182;-96.766;2023-01-16T14:40:00;18.60;55.10
44517;DHT22;30223;17.182;-96.766;2023-01-16T14:45:33;18.60;55.40
44517;DHT22;30223;17.182;-96.766;2023-01-16T14:54:16;18.60;55.50
44517;DHT22;30223;17.182;-96.766;2023-01-16T15:00:04;18.60;55.70
44517;DHT22;30223;17.182;-96.766;2023-01-16T15:02:43;18.60;55.60
44517;DHT22;30223;17.182;-96.766;2023-01-16T15:05:13;18.70;55.60
44517;DHT22;30223;17.182;-96.766;2023-01-16T15:07:58;18.70;55.80
44517;DHT22;30223;17.182;-96.766;2023-01-16T15:13:32;18.70;55.80
44517;DHT22;30223;17.182;-96.766;2023-01-16T15:16:20;18.70;55.70
44517;DHT22;30223;17.182;-96.766;2023-01-16T15:19:21;18.70;55.80
44517;DHT22;30223;17.182;-96.766;2023-01-16T15:22:17;18.70;55.80
44517;DHT22;30223;17.182;-96.766;2023-01-16T15:24:54;18.70;55.80
44517;DHT22;30223;17.182;-96.766;2023-01-16T15:27:32;18.80;55.80
44517;DHT22;30223;17.182;-96.766;2023-01-16T15:30:13;18.80;55.80
44517;DHT22;30223;17.182;-96.766;2023-01-16T15:32:58;18.80;55.90
44517;DHT22;30223;17.182;-96.766;2023-01-16T15:35:54;18.80;55.80
44517;DHT22;30223;17.182;-96.766;2023-01-16T15:38:24;18.90;55.90
44517;DHT22;30223;17.182;-96.766;2023-01-16T15:40:52;18.80;55.90
44517;DHT22;30223;17.182;-96.766;2023-01-16T15:43:21;18.80;55.90
44517;DHT22;30223;17.182;-96.766;2023-01-16T15:46:48;18.90;56.00
44517;DHT22;30223;17.182;-96.766;2023-01-16T15:49:30;18.90;55.90
44517;DHT22;30223;17.182;-96.766;2023-01-16T15:52:00;18.90;55.80
44517;DHT22;30223;17.182;-96.766;2023-01-16T15:54:27;19.00;56.00
44517;DHT22;30223;17.182;-96.766;2023-01-16T15:56:54;18.90;55.90
44517;DHT22;30223;17.182;-96.766;2023-01-16T16:01:49;19.00;55.80
44517;DHT22;30223;17.182;-96.766;2023-01-16T16:04:16;19.00;55.80
44517;DHT22;30223;17.182;-96.766;2023-01-16T16:06:44;19.00;55.80
44517;DHT22;30223;17.182;-96.766;2023-01-16T16:09:20;19.10;55.90
44517;DHT22;30223;17.182;-96.766;2023-01-16T16:11:49;19.10;55.80
44517;DHT22;30223;17.182;-96.766;2023-01-16T16:14:23;19.10;55.80
44517;DHT22;30223;17.182;-96.766;2023-01-16T16:17:31;19.10;55.80
44517;DHT22;30223;17.182;-96.766;2023-01-16T16:20:30;19.10;55.80
44517;DHT22;30223;17.182;-96.766;2023-01-16T16:23:15;19.20;55.80
44517;DHT22;30223;17.182;-96.766;2023-01-16T16:26:00;19.20;55.70
44517;DHT22;30223;17.182;-96.766;2023-01-16T16:28:36;19.20;55.70
44517;DHT22;30223;17.182;-96.766;2023-01-16T16:31:33;19.20;55.90
44517;DHT22;30223;17.182;-96.766;2023-01-16T16:34:20;19.20;56.30
44517;DHT22;30223;17.182;-96.766;2023-01-16T16:36:53;19.30;55.70
44517;DHT22;30223;17.182;-96.766;2023-01-16T16:42:35;19.30;55.70
44517;DHT22;30223;17.182;-96.766;2023-01-16T16:45:12;19.40;55.70
44517;DHT22;30223;17.182;-96.766;2023-01-16T16:47:45;19.40;55.60
44517;DHT22;30223;17.182;-96.766;2023-01-16T16:50:32;19.40;55.60
44517;DHT22;30223;17.182;-96.766;2023-01-16T16:53:24;19.40;55.50
44517;DHT22;30223;17.182;-96.766;2023-01-16T16:56:09;19.50;55.50
44517;DHT22;30223;17.182;-96.766;2023-01-16T16:58:44;19.50;55.50
44517;DHT22;30223;17.182;-96.766;2023-01-16T17:01:17;19.50;55.40
44517;DHT22;30223;17.182;-96.766;2023-01-16T17:03:45;19.60;55.40
44517;DHT22;30223;17.182;-96.766;2023-01-16T17:06:20;19.60;55.40
44517;DHT22;30223;17.182;-96.766;2023-01-16T17:08:48;19.60;55.30
44517;DHT22;30223;17.182;-96.766;2023-01-16T17:11:15;19.70;55.30
44517;DHT22;30223;17.182;-96.766;2023-01-16T17:13:42;19.70;55.20
44517;DHT22;30223;17.182;-96.766;2023-01-16T17:16:19;19.70;55.20
44517;DHT22;30223;17.182;-96.766;2023-01-16T17:18:48;19.70;55.10
44517;DHT22;30223;17.182;-96.766;2023-01-16T17:21:18;19.80;55.10
44517;DHT22;30223;17.182;-96.766;2023-01-16T17:23:45;19.80;55.10
44517;DHT22;30223;17.182;-96.766;2023-01-16T17:26:13;19.90;55.10
44517;DHT22;30223;17.182;-96.766;2023-01-16T17:28:41;19.90;55.10
44517;DHT22;30223;17.182;-96.766;2023-01-16T17:31:16;19.90;55.00
44517;DHT22;30223;17.182;-96.766;2023-01-16T17:33:45;19.90;55.00
44517;DHT22;30223;17.182;-96.766;2023-01-16T17:36:23;20.00;55.00
44517;DHT22;30223;17.182;-96.766;2023-01-16T17:38:50;20.00;54.90
44517;DHT22;30223;17.182;-96.766;2023-01-16T17:41:23;20.10;55.00
44517;DHT22;30223;17.182;-96.766;2023-01-16T17:43:51;20.10;55.00
44517;DHT22;30223;17.182;-96.766;2023-01-16T17:46:36;20.10;54.90
44517;DHT22;30223;17.182;-96.766;2023-01-16T17:49:02;20.20;54.90
44517;DHT22;30223;17.182;-96.766;2023-01-16T17:51:29;20.20;54.90
44517;DHT22;30223;17.182;-96.766;2023-01-16T17:53:58;20.20;54.80
44517;DHT22;30223;17.182;-96.766;2023-01-16T17:56:25;20.30;54.90
44517;DHT22;30223;17.182;-96.766;2023-01-16T17:58:52;20.30;54.90
44517;DHT22;30223;17.182;-96.766;2023-01-16T18:01:22;20.30;54.80
44517;DHT22;30223;17.182;-96.766;2023-01-16T18:03:51;20.30;54.80
44517;DHT22;30223;17.182;-96.766;2023-01-16T18:06:18;20.40;54.80
44517;DHT22;30223;17.182;-96.766;2023-01-16T18:08:48;20.40;54.80
44517;DHT22;30223;17.182;-96.766;2023-01-16T18:11:15;20.40;54.70
44517;DHT22;30223;17.182;-96.766;2023-01-16T18:13:59;20.50;54.70
44517;DHT22;30223;17.182;-96.766;2023-01-16T18:16:44;20.50;54.70
44517;DHT22;30223;17.182;-96.766;2023-01-16T18:19:29;20.50;54.60
44517;DHT22;30223;17.182;-96.766;2023-01-16T18:21:56;20.60;54.60
44517;DHT22;30223;17.182;-96.766;2023-01-16T18:24:34;20.60;54.60
44517;DHT22;30223;17.182;-96.766;2023-01-16T18:27:03;20.60;54.50
44517;DHT22;30223;17.182;-96.766;2023-01-16T18:29:30;20.70;54.50